Time;durP1;ratioP1;P1;durP2;ratioP2;P2;SDS_P1;SDS_P2;PMS_P1;PMS_P2;Temp;Humidity;BMP_temperature;BMP_pressure;BME280_temperature;BME280_humidity;BME280_pressure;Samples;Min_cycle;Max_cycle;Signal;HPM_P1;HPM_P2
2022/08/12 00:45:06;;;;;;;6.75;2.92;;;;;;;15.09;73.67;99933.09;8381391;28;20106;-82
2022/08/12 00:49:07;;;;;;;5.90;2.75;;;;;;;15.07;73.57;99927.16;8399620;28;20056;-82
2022/08/12 00:53:08;;;;;;;8.50;2.97;;;;;;;15.05;73.37;99929.44;8390744;28;20094;-82
2022/08/12 00:57:16;;;;;;;4.05;2.50;;;;;;;14.96;73.75;99934.06;8376369;28;20041;-82
2022/08/12 01:01:18;;;;;;;5.03;2.95;;;;;;;14.97;73.70;99935.63;8399289;28;20036;-82
2022/08/12 01:14:02;;;;;;;13.75;4.20;;;;;;;15.09;73.71;99949.44;8368090;28;20048;-82
2022/08/12 01:18:04;;;;;;;13.75;4.15;;;;;;;15.07;73.97;99940.78;8390558;28;20053;-82
2022/08/12 01:22:22;;;;;;;10.02;3.78;;;;;;;15.10;74.18;99940.16;8376269;28;20081;-82
2022/08/12 01:26:24;;;;;;;11.07;4.47;;;;;;;15.12;74.16;99946.09;8373988;28;20052;-82
2022/08/12 01:30:25;;;;;;;9.32;4.03;;;;;;;15.13;74.43;99944.94;8366649;28;20052;-82
2022/08/12 01:34:32;;;;;;;10.45;4.70;;;;;;;15.08;74.85;99936.94;8361807;28;20045;-82
2022/08/12 01:38:33;;;;;;;9.80;4.60;;;;;;;15.06;74.97;99939.19;8368025;28;20507;-82
2022/08/12 01:42:46;;;;;;;15.00;5.00;;;;;;;15.09;75.07;99944.00;8368770;28;20051;-82
2022/08/12 01:47:32;;;;;;;12.00;4.43;;;;;;;15.19;75.02;99949.13;8364051;28;20511;-81
2022/08/12 01:51:41;;;;;;;10.20;4.10;;;;;;;15.20;75.12;99956.16;8372121;28;20052;-82
2022/08/12 01:55:46;;;;;;;6.13;2.67;;;;;;;15.25;75.15;99942.41;8365149;28;20076;-82
2022/08/12 02:00:03;;;;;;;8.68;2.95;;;;;;;15.30;74.98;99947.69;8372304;28;20061;-82
2022/08/12 02:13:39;;;;;;;7.70;3.35;;;;;;;15.46;75.01;99959.72;8278666;28;20045;-82
2022/08/12 02:17:50;;;;;;;6.65;2.88;;;;;;;15.49;75.07;99953.63;8343106;28;20049;-82
2022/08/12 02:22:03;;;;;;;3.95;2.85;;;;;;;15.51;75.42;99951.41;8328072;28;20064;-82
2022/08/12 02:26:07;;;;;;;5.70;3.28;;;;;;;15.49;75.90;99953.63;8333837;28;20045;-82
2022/08/12 02:30:11;;;;;;;9.75;3.10;;;;;;;15.48;75.79;99946.59;8334295;28;20520;-82
2022/08/12 02:34:13;;;;;;;5.95;3.15;;;;;;;15.53;76.07;99959.25;8323274;28;20041;-82
2022/08/12 02:38:14;;;;;;;6.88;3.13;;;;;;;15.55;75.72;99941.47;8327843;28;20480;-82
2022/08/12 02:42:18;;;;;;;5.38;3.13;;;;;;;15.55;75.89;99936.03;8341092;28;20435;-82
2022/08/12 02:46:31;;;;;;;6.15;3.13;;;;;;;15.50;76.41;99922.56;8350943;28;20460;-82
2022/08/12 02:50:35;;;;;;;6.38;3.45;;;;;;;15.45;76.39;99930.88;8359599;28;20056;-82
2022/08/12 02:54:36;;;;;;;7.80;3.30;;;;;;;15.41;76.80;99938.09;8381223;28;20443;-82
2022/08/12 02:58:38;;;;;;;4.47;3.22;;;;;;;15.36;77.06;99921.94;8362349;28;20405;-82
2022/08/12 03:02:39;;;;;;;5.93;3.40;;;;;;;15.30;77.17;99934.09;8314222;28;20514;-82
2022/08/12 03:06:47;;;;;;;7.50;3.22;;;;;;;15.24;77.23;99924.47;8361628;28;20119;-82
2022/08/12 03:10:49;;;;;;;5.40;3.05;;;;;;;15.19;77.11;99916.47;8361364;28;20056;-82
2022/08/12 03:14:53;;;;;;;5.50;3.30;;;;;;;15.15;77.49;99920.97;8376306;28;20055;-81
2022/08/12 03:18:54;;;;;;;4.70;3.28;;;;;;;15.17;77.50;99924.94;8358186;28;20536;-81
2022/08/12 03:22:55;;;;;;;6.13;3.00;;;;;;;15.18;77.66;99920.31;8367353;28;20079;-81
2022/08/12 03:26:57;;;;;;;5.53;3.30;;;;;;;15.16;77.93;99928.00;8389500;28;20152;-82
2022/08/12 03:31:04;;;;;;;6.30;3.58;;;;;;;15.11;78.18;99936.31;8379514;28;20052;-82
2022/08/12 03:35:06;;;;;;;5.63;3.35;;;;;;;15.11;78.47;99936.31;8361864;28;20114;-82
2022/08/12 04:01:06;;;;;;;;;;;;;;;15.24;77.03;99943.53;8387678;28;20083;-82
2022/08/12 04:05:11;;;;;;;6.47;3.80;;;;;;;15.23;77.46;99939.19;8381956;28;19920;-82
2022/08/12 04:09:12;;;;;;;10.57;3.72;;;;;;;15.23;77.38;99950.06;8391630;28;20074;-82
2022/08/12 04:13:20;;;;;;;7.35;3.53;;;;;;;15.22;77.51;99948.50;8393914;28;20048;-82
2022/08/12 04:17:21;;;;;;;11.45;3.67;;;;;;;15.28;77.30;99947.19;8382377;28;20432;-81
2022/08/12 04:21:22;;;;;;;6.47;3.97;;;;;;;15.35;77.01;99947.53;8361106;28;20451;-80
2022/08/12 04:25:24;;;;;;;9.20;4.15;;;;;;;15.42;77.07;99958.75;8362467;28;20091;-82
2022/08/12 04:29:25;;;;;;;7.85;4.05;;;;;;;15.47;77.13;99976.84;8373532;28;20045;-82
2022/08/12 04:33:26;;;;;;;18.05;4.25;;;;;;;15.59;76.90;99968.88;8361031;28;20045;-82
2022/08/12 04:37:27;;;;;;;7.28;4.57;;;;;;;15.68;76.79;99964.22;8352509;28;20170;-82
2022/08/12 04:41:30;;;;;;;10.95;4.72;;;;;;;15.79;76.83;99962.78;8365400;28;20061;-82
2022/08/12 04:45:31;;;;;;;8.85;5.10;;;;;;;15.84;76.65;99953.63;8353706;28;20140;-82
2022/08/12 04:49:33;;;;;;;7.88;4.60;;;;;;;15.91;76.42;99953.94;8367667;28;20053;-81
2022/08/12 04:53:34;;;;;;;11.02;4.90;;;;;;;15.94;76.51;99937.75;8366384;28;20037;-82
2022/08/12 04:57:36;;;;;;;9.05;4.97;;;;;;;15.96;76.65;99948.34;8367836;28;20087;-82
2022/08/12 05:01:38;;;;;;;10.98;4.57;;;;;;;15.97;76.51;99952.63;8366846;28;20057;-81
2022/08/12 05:05:40;;;;;;;8.73;4.25;;;;;;;16.02;76.62;99938.88;8363767;28;20144;-82
2022/08/12 05:09:42;;;;;;;7.38;4.32;;;;;;;16.15;76.29;99937.84;8387457;28;20629;-80
2022/08/12 05:13:43;;;;;;;6.60;4.28;;;;;;;16.28;76.22;99941.50;8356783;28;20044;-81
2022/08/12 05:17:47;;;;;;;4.97;3.85;;;;;;;16.40;75.91;99928.78;8343136;28;20077;-82
2022/08/12 05:21:48;;;;;;;8.82;3.70;;;;;;;16.55;75.92;99923.94;8350778;28;20040;-82
2022/08/12 05:25:51;;;;;;;7.10;3.20;;;;;;;16.69;75.41;99919.06;8357468;28;20041;-81
2022/08/12 05:29:51;;;;;;;7.68;3.50;;;;;;;16.85;74.78;99922.81;8351348;28;20061;-82
2022/08/12 05:33:52;;;;;;;6.45;3.28;;;;;;;16.99;74.65;99923.34;8339113;28;20072;-82
2022/08/12 05:42:15;;;;;;;6.30;3.25;;;;;;;17.20;74.35;99918.72;8343103;28;20053;-82
2022/08/12 05:46:17;;;;;;;6.18;2.92;;;;;;;17.31;74.41;99914.44;8364198;28;20048;-83
2022/08/12 05:50:18;;;;;;;6.55;2.80;;;;;;;17.45;73.85;99924.31;8365201;28;20504;-83
2022/08/12 05:54:19;;;;;;;5.65;3.03;;;;;;;17.57;73.52;99916.16;8380232;28;20131;-83
2022/08/12 05:58:20;;;;;;;5.50;2.90;;;;;;;17.63;73.15;99925.78;8364933;28;20043;-82
2022/08/12 06:02:21;;;;;;;3.92;2.75;;;;;;;17.73;73.00;99928.09;8365297;28;20053;-82
2022/08/12 06:06:23;;;;;;;3.97;2.58;;;;;;;17.84;72.78;99921.06;8364865;28;20060;-83
2022/08/12 06:10:23;;;;;;;4.57;2.95;;;;;;;17.93;72.76;99927.25;8366482;28;20072;-83
2022/08/12 06:14:24;;;;;;;4.93;2.40;;;;;;;18.06;72.22;99917.94;8365304;28;20546;-82
2022/08/12 06:18:25;;;;;;;6.60;2.72;;;;;;;18.15;72.37;99924.09;8365387;28;20072;-82
2022/08/12 06:22:26;;;;;;;3.13;2.45;;;;;;;18.25;72.11;99930.25;8354703;28;20105;-83
2022/08/12 06:26:27;;;;;;;5.00;2.47;;;;;;;18.34;71.47;99933.72;8365985;28;20052;-83
2022/08/12 06:30:30;;;;;;;5.15;2.05;;;;;;;18.43;70.98;99937.13;8378776;28;20053;-83
2022/08/12 06:34:33;;;;;;;3.40;2.25;;;;;;;18.46;70.71;99928.25;8353465;28;20492;-82
2022/08/12 06:38:35;;;;;;;3.15;2.00;;;;;;;18.61;70.42;99929.56;8364435;28;20492;-82
2022/08/12 06:42:50;;;;;;;8.60;2.53;;;;;;;18.76;69.98;99929.66;8363050;28;20452;-82
2022/08/12 06:46:52;;;;;;;8.13;2.40;;;;;;;18.88;69.37;99926.91;8353486;28;20040;-82
2022/08/12 06:50:56;;;;;;;3.80;2.13;;;;;;;19.01;68.88;99929.63;8363535;28;20075;-82
2022/08/12 06:54:58;;;;;;;6.43;2.22;;;;;;;19.10;68.97;99922.88;8363587;28;20045;-82
2022/08/12 06:59:01;;;;;;;3.63;2.20;;;;;;;19.18;68.35;99932.09;8349884;28;20064;-82
2022/08/12 07:03:05;;;;;;;4.43;2.40;;;;;;;19.29;67.47;99925.00;8356557;28;20053;-83
2022/08/12 07:07:09;;;;;;;2.63;2.30;;;;;;;19.37;67.37;99926.78;8352089;28;20037;-83
2022/08/12 07:11:12;;;;;;;6.03;2.10;;;;;;;19.45;67.27;99923.16;8355236;28;20520;-83
2022/08/12 07:15:12;;;;;;;2.47;1.60;;;;;;;19.49;67.18;99913.09;8336466;28;20535;-82
2022/08/12 07:19:14;;;;;;;5.00;1.98;;;;;;;19.57;66.76;99909.41;8363052;28;20037;-82
2022/08/12 07:23:16;;;;;;;3.85;2.03;;;;;;;19.71;66.51;99914.50;8346813;28;20045;-82
2022/08/12 07:27:17;;;;;;;2.25;1.98;;;;;;;19.83;65.73;99905.41;8346269;28;20152;-81
2022/08/12 07:31:18;;;;;;;2.05;1.85;;;;;;;19.86;65.82;99905.50;8347998;28;20052;-82
2022/08/12 07:35:19;;;;;;;4.22;1.92;;;;;;;19.98;65.41;99907.38;8339967;28;20037;-82
2022/08/12 07:39:20;;;;;;;5.22;2.03;;;;;;;20.08;65.09;99906.88;8346281;28;20045;-82
2022/08/12 07:43:22;;;;;;;3.10;2.30;;;;;;;20.19;64.40;99907.94;8341916;28;20068;-82
2022/08/12 07:47:23;;;;;;;4.50;1.98;;;;;;;20.30;64.50;99903.53;8356999;28;20052;-81
2022/08/12 07:51:25;;;;;;;4.38;1.95;;;;;;;20.36;64.08;99907.59;8363433;28;20041;-82
2022/08/12 07:55:27;;;;;;;4.45;1.90;;;;;;;20.42;64.07;99906.19;8362192;28;20049;-82
2022/08/12 07:59:28;;;;;;;4.00;2.17;;;;;;;20.53;63.71;99907.25;8376664;28;20057;-81
2022/08/12 08:03:29;;;;;;;3.60;2.17;;;;;;;20.65;63.53;99904.41;8361714;28;20083;-82
2022/08/12 08:07:30;;;;;;;6.72;2.40;;;;;;;20.77;63.74;99905.44;8362250;28;20053;-82
2022/08/12 08:15:52;;;;;;;4.10;2.40;;;;;;;21.02;62.09;99895.81;8365952;28;20080;-82
2022/08/12 08:19:54;;;;;;;14.98;9.52;;;;;;;21.11;61.38;99901.88;8368763;28;20496;-82
2022/08/12 08:24:13;;;;;;;3.78;2.17;;;;;;;21.15;60.99;99899.28;8368297;28;20044;-83
2022/08/12 08:28:18;;;;;;;3.13;2.20;;;;;;;21.26;61.21;99901.06;8377572;28;20140;-82
2022/08/12 08:32:19;;;;;;;2.38;1.73;;;;;;;21.48;61.51;99903.09;8353857;28;20049;-82
2022/08/12 08:36:20;;;;;;;3.60;2.08;;;;;;;21.66;60.30;99905.41;8367980;28;20068;-83
2022/08/12 08:44:42;;;;;;;4.22;2.20;;;;;;;21.61;61.07;99905.72;8351854;28;20071;-81
2022/08/12 08:48:43;;;;;;;3.78;2.30;;;;;;;21.40;61.36;99911.56;8367382;28;20492;-81
2022/08/12 08:52:46;;;;;;;3.78;2.20;;;;;;;21.53;60.98;99909.47;8364493;28;20143;-82
2022/08/12 08:56:49;;;;;;;5.15;2.25;;;;;;;21.81;60.62;99904.53;8353825;28;20045;-82
2022/08/12 09:00:51;;;;;;;4.55;2.10;;;;;;;21.86;60.05;99901.47;8355917;28;20042;-82
2022/08/12 09:04:52;;;;;;;5.00;2.55;;;;;;;22.07;60.24;99901.09;8335969;28;20057;-82
2022/08/12 09:08:53;;;;;;;5.65;2.13;;;;;;;22.15;59.28;99903.63;8352117;28;20144;-82
2022/08/12 09:17:14;;;;;;;3.28;2.13;;;;;;;22.30;58.95;99910.94;8362201;28;20053;-82
2022/08/12 09:21:15;;;;;;;6.15;2.45;;;;;;;22.52;58.26;99890.09;8334850;28;20072;-82
2022/08/12 09:25:17;;;;;;;3.38;2.17;;;;;;;22.76;57.62;99904.59;8338067;28;20069;-82
2022/08/12 09:29:21;;;;;;;7.05;2.50;;;;;;;22.54;58.12;99903.44;8345795;28;20467;-82
2022/08/12 09:33:32;;;;;;;2.75;2.22;;;;;;;22.21;58.64;99902.13;8348790;28;20092;-81
2022/08/12 09:37:33;;;;;;;2.95;2.40;;;;;;;22.56;58.22;99895.63;8389420;28;20060;-82
2022/08/12 09:41:41;;;;;;;5.82;2.38;;;;;;;22.96;57.94;99898.63;8348310;28;20073;-82
2022/08/12 09:45:48;;;;;;;4.87;2.50;;;;;;;23.31;56.86;99890.03;8349481;28;20136;-82
2022/08/12 09:49:49;;;;;;;5.97;2.50;;;;;;;23.33;57.15;99884.94;8364633;28;20078;-82
2022/08/12 09:53:53;;;;;;;4.90;2.38;;;;;;;23.10;57.72;99887.81;8366775;28;20056;-82
2022/08/12 09:57:54;;;;;;;5.40;2.42;;;;;;;22.85;58.09;99886.66;8365754;28;20480;-81
2022/08/12 10:01:55;;;;;;;2.40;2.20;;;;;;;23.19;56.65;99878.47;8352688;28;20120;-81
2022/08/12 10:05:56;;;;;;;3.70;2.42;;;;;;;23.54;56.16;99867.88;8366690;28;20056;-82
2022/08/12 10:09:57;;;;;;;5.32;2.35;;;;;;;23.89;55.22;99873.78;8365436;28;20508;-80
2022/08/12 10:13:58;;;;;;;3.65;2.20;;;;;;;24.05;55.11;99875.50;8366059;28;20864;-81
2022/08/12 10:17:59;;;;;;;8.93;2.50;;;;;;;24.13;53.95;99860.59;8365862;28;20041;-81
2022/08/12 10:22:00;;;;;;;5.55;2.20;;;;;;;24.29;53.65;99864.69;8366106;28;20067;-81
2022/08/12 10:30:20;;;;;;;6.95;2.05;;;;;;;24.61;51.83;99848.38;8365404;28;20045;-82
2022/08/12 10:34:24;;;;;;;4.85;1.70;;;;;;;24.52;51.89;99855.41;8365202;28;20140;-83
2022/08/12 10:38:25;;;;;;;2.70;1.88;;;;;;;24.63;50.95;99851.56;8364768;28;20096;-82
2022/08/12 10:46:45;;;;;;;8.68;2.67;;;;;;;24.61;51.70;99840.09;8365074;28;20049;-81
2022/08/12 10:50:46;;;;;;;6.53;2.47;;;;;;;24.81;50.39;99846.91;8361749;28;20063;-81
2022/08/12 10:54:49;;;;;;;2.65;2.10;;;;;;;24.79;50.49;99843.75;8364158;28;20041;-80
2022/08/12 10:58:51;;;;;;;5.57;2.17;;;;;;;25.01;50.71;99832.84;8364853;28;20045;-83
2022/08/12 11:02:53;;;;;;;4.63;2.33;;;;;;;25.30;50.69;99822.69;8378968;28;20072;-82
2022/08/12 11:06:55;;;;;;;4.80;2.42;;;;;;;25.65;50.49;99818.06;8363015;28;20357;-81
2022/08/12 11:10:56;;;;;;;3.30;1.90;;;;;;;25.06;50.13;99829.72;8364236;28;20053;-84
2022/08/12 11:14:58;;;;;;;2.78;2.22;;;;;;;24.39;51.88;99830.06;8374260;28;20428;-82
2022/08/12 11:19:01;;;;;;;4.05;2.38;;;;;;;24.28;52.85;99818.16;8331817;28;20049;-83
2022/08/12 11:23:02;;;;;;;4.90;2.30;;;;;;;24.96;51.94;99825.69;8336041;28;20061;-84
2022/08/12 11:27:05;;;;;;;2.10;1.88;;;;;;;25.55;51.02;99829.88;8348810;28;20091;-84
2022/08/12 11:31:08;;;;;;;8.55;2.15;;;;;;;25.31;49.91;99825.06;8367617;28;20071;-82
2022/08/12 11:35:09;;;;;;;7.40;2.28;;;;;;;24.75;51.51;99820.81;8343041;28;20058;-82
2022/08/12 11:39:10;;;;;;;4.75;2.00;;;;;;;24.46;52.09;99818.28;8343863;28;20038;-83
2022/08/12 11:43:11;;;;;;;4.40;2.50;;;;;;;24.55;52.36;99810.44;8328614;28;20332;-83
2022/08/12 11:47:12;;;;;;;3.47;2.03;;;;;;;25.23;52.38;99795.78;8332259;28;20049;-83
2022/08/12 11:51:12;;;;;;;4.35;2.00;;;;;;;25.77;50.36;99796.72;8334026;28;20444;-83
2022/08/12 11:55:17;;;;;;;3.55;1.90;;;;;;;26.02;49.04;99790.00;8334897;28;20723;-83
2022/08/12 11:59:18;;;;;;;3.13;1.83;;;;;;;26.22;48.65;99795.16;8333195;28;20045;-81
2022/08/12 12:03:19;;;;;;;2.85;2.30;;;;;;;25.68;48.84;99793.56;8335245;28;20107;-83
2022/08/12 12:07:21;;;;;;;3.97;1.92;;;;;;;25.23;49.61;99795.78;8349105;28;20045;-83
2022/08/12 12:11:22;;;;;;;3.13;2.15;;;;;;;25.22;50.92;99794.25;8347170;28;20092;-82
2022/08/12 12:15:24;;;;;;;4.90;2.17;;;;;;;25.39;50.19;99793.47;8347724;28;20041;-83
2022/08/12 12:19:25;;;;;;;3.45;2.20;;;;;;;25.64;47.74;99794.34;8340028;28;20496;-83
2022/08/12 12:23:26;;;;;;;5.00;2.28;;;;;;;25.39;48.63;99792.69;8336835;28;20057;-85
2022/08/12 12:27:30;;;;;;;3.70;1.92;;;;;;;25.09;49.45;99795.75;8334929;28;20049;-83
2022/08/12 12:31:32;;;;;;;5.85;2.15;;;;;;;24.89;50.30;99786.22;8328254;28;20086;-82
2022/08/12 12:35:34;;;;;;;6.82;2.05;;;;;;;25.27;49.20;99780.03;8343684;28;20041;-82
2022/08/12 12:39:34;;;;;;;3.97;2.13;;;;;;;25.98;48.08;99769.88;8338641;28;20132;-81
2022/08/12 12:43:36;;;;;;;5.25;2.00;;;;;;;26.70;47.61;99776.88;8343854;28;20398;-83
2022/08/12 12:48:10;;;;;;;9.45;2.28;;;;;;;26.87;45.77;99786.34;8387625;28;20049;-82
2022/08/12 12:52:12;;;;;;;2.97;2.03;;;;;;;26.39;45.68;99772.22;8353870;28;20067;-83
2022/08/12 12:56:21;;;;;;;2.80;1.90;;;;;;;25.93;47.11;99772.22;8361315;28;20045;-83
2022/08/12 13:00:23;;;;;;;4.03;1.90;;;;;;;26.10;46.80;99771.44;8362074;28;20079;-83
2022/08/12 13:04:25;;;;;;;5.85;1.90;;;;;;;26.69;44.87;99771.75;8349693;28;20071;-81
2022/08/12 13:08:29;;;;;;;3.20;1.80;;;;;;;26.91;44.68;99770.53;8346124;28;20048;-82
2022/08/12 13:12:31;;;;;;;10.70;6.38;;;;;;;26.46;45.00;99775.75;8346464;28;20045;-83
2022/08/12 13:16:32;;;;;;;3.65;2.25;;;;;;;25.96;45.54;99769.44;8317085;28;20045;-82
2022/08/12 13:20:33;;;;;;;2.80;2.17;;;;;;;25.59;46.40;99764.31;8342721;28;20083;-84
2022/08/12 13:24:34;;;;;;;4.10;2.10;;;;;;;25.42;47.07;99754.00;8354840;28;20049;-83
2022/08/12 13:28:34;;;;;;;3.55;1.83;;;;;;;25.80;45.65;99757.22;8350540;28;20068;-83
2022/08/12 13:32:36;;;;;;;2.20;2.00;;;;;;;26.46;43.96;99750.84;8343767;28;20057;-83
2022/08/12 13:36:37;;;;;;;3.92;1.60;;;;;;;28.30;40.47;99743.38;8346038;28;20068;-85
2022/08/12 13:40:39;;;;;;;7.30;1.90;;;;;;;27.86;40.15;99752.50;8358948;28;20034;-81
2022/08/12 13:44:40;;;;;;;2.13;1.92;;;;;;;28.02;40.27;99743.66;8354486;28;20052;-81
2022/08/12 13:48:42;;;;;;;1.88;1.70;;;;;;;29.68;38.87;99730.47;8365954;28;20071;-81
2022/08/12 13:52:43;;;;;;;5.63;1.65;;;;;;;31.63;35.79;99731.41;8365894;28;20075;-81
2022/08/12 13:56:44;;;;;;;4.53;2.10;;;;;;;32.79;33.53;99721.94;8365866;28;20086;-82
2022/08/12 14:00:51;;;;;;;7.55;2.78;;;;;;;33.06;33.68;99736.31;8365258;28;20061;-81
2022/08/12 14:04:52;;;;;;;3.17;1.90;;;;;;;31.41;35.76;99726.31;8361886;28;20053;-81
2022/08/12 14:08:54;;;;;;;5.72;2.15;;;;;;;30.92;35.88;99727.41;8363916;28;20076;-80
2022/08/12 14:12:55;;;;;;;2.97;2.08;;;;;;;32.76;33.99;99720.03;8363898;28;20053;-82
2022/08/12 14:16:57;;;;;;;5.53;2.50;;;;;;;32.60;34.16;99725.66;8364622;28;20049;-82
2022/08/12 14:21:00;;;;;;;2.60;1.90;;;;;;;31.40;35.34;99724.75;8365010;28;20041;-81
2022/08/12 14:25:01;;;;;;;3.13;2.15;;;;;;;29.70;38.04;99732.84;8365432;28;20083;-81
2022/08/12 14:29:02;;;;;;;3.08;1.95;;;;;;;28.47;40.13;99736.06;8374826;28;20045;-81
2022/08/12 14:33:04;;;;;;;7.78;2.55;;;;;;;27.80;41.55;99731.16;8364678;28;20056;-81
2022/08/12 14:37:05;;;;;;;4.68;2.03;;;;;;;27.47;42.46;99740.88;8364380;28;20049;-81
2022/08/12 14:41:12;;;;;;;3.42;2.00;;;;;;;27.15;43.42;99730.78;8363971;28;20447;-81
2022/08/12 14:45:13;;;;;;;2.92;2.08;;;;;;;26.94;43.66;99719.81;8350588;28;20048;-81
2022/08/12 14:49:14;;;;;;;3.83;2.00;;;;;;;26.95;43.71;99709.53;8351826;28;20049;-80
2022/08/12 14:53:16;;;;;;;2.90;1.98;;;;;;;29.82;38.92;99706.41;8308158;28;20061;-80
2022/08/12 14:57:18;;;;;;;4.32;2.10;;;;;;;32.88;34.46;99699.69;8350393;28;20060;-81
2022/08/12 15:05:40;;;;;;;2.40;1.80;;;;;;;35.09;29.63;99707.72;8346708;28;20099;-82
2022/08/12 15:09:41;;;;;;;3.45;1.80;;;;;;;35.32;28.38;99700.84;8358483;28;20037;-81
2022/08/12 15:13:47;;;;;;;4.93;2.15;;;;;;;35.86;28.27;99714.25;8368470;28;20037;-80
2022/08/12 15:17:48;;;;;;;4.55;2.20;;;;;;;35.46;28.46;99703.84;8347368;28;20042;-81
2022/08/12 15:21:49;;;;;;;3.10;1.92;;;;;;;34.69;29.74;99697.22;8351672;28;20444;-81
2022/08/12 15:25:54;;;;;;;2.70;1.88;;;;;;;33.22;31.64;99692.69;8355620;28;20067;-81
2022/08/12 15:29:55;;;;;;;6.32;2.28;;;;;;;31.65;33.90;99690.66;8371204;28;20545;-82
2022/08/12 15:33:56;;;;;;;5.78;2.30;;;;;;;30.79;35.45;99684.66;8383381;28;20072;-82
2022/08/12 15:38:02;;;;;;;3.75;2.30;;;;;;;30.18;35.98;99679.50;8340723;28;20045;-81
2022/08/12 15:42:04;;;;;;;4.07;2.37;;;;;;;29.60;35.71;99695.63;8330977;28;20102;-81
2022/08/12 15:46:05;;;;;;;4.20;2.10;;;;;;;28.84;36.38;99694.34;8346904;28;20045;-82
2022/08/12 15:50:07;;;;;;;5.20;2.10;;;;;;;28.22;37.71;99696.66;8361984;28;20068;-82
2022/08/12 15:54:12;;;;;;;3.45;2.03;;;;;;;27.72;38.57;99691.56;8361417;28;20037;-82
2022/08/12 15:58:13;;;;;;;10.30;2.50;;;;;;;27.27;39.26;99688.72;8362299;28;20059;-82
2022/08/12 16:02:17;;;;;;;4.55;2.58;;;;;;;27.14;40.53;99687.63;8360783;28;20496;-81
2022/08/12 16:06:18;;;;;;;4.82;2.95;;;;;;;27.09;40.52;99682.50;8361441;28;20080;-82
2022/08/12 16:10:20;;;;;;;5.90;2.47;;;;;;;26.92;40.79;99683.38;8361418;28;20045;-80
2022/08/12 16:14:21;;;;;;;4.35;2.83;;;;;;;26.85;41.07;99683.41;8364925;28;20063;-81
2022/08/12 16:18:22;;;;;;;5.38;2.50;;;;;;;26.70;41.33;99681.91;8359697;28;20041;-82
2022/08/12 16:22:26;;;;;;;5.47;2.95;;;;;;;26.59;41.71;99681.16;8359781;28;20049;-82
2022/08/12 16:26:33;;;;;;;3.13;2.63;;;;;;;26.46;42.36;99678.81;8360810;28;21487;-81
2022/08/12 16:30:36;;;;;;;3.83;2.65;;;;;;;26.25;43.00;99678.91;8374381;28;20045;-81
2022/08/12 16:34:38;;;;;;;4.82;2.67;;;;;;;26.09;43.38;99670.22;8366409;28;20552;-80
2022/08/12 16:38:39;;;;;;;8.07;3.10;;;;;;;25.91;43.50;99666.72;8367030;28;20045;-81
2022/08/12 16:42:42;;;;;;;4.05;3.00;;;;;;;25.75;43.96;99660.81;8365267;28;20068;-81
2022/08/12 16:46:44;;;;;;;6.35;3.25;;;;;;;25.58;44.69;99668.72;8359639;28;20044;-81
2022/08/12 16:50:48;;;;;;;5.55;3.03;;;;;;;25.48;45.33;99669.47;8368641;28;20045;-81
2022/08/12 16:54:50;;;;;;;6.25;3.05;;;;;;;25.33;45.95;99667.09;8365661;28;20045;-81
2022/08/12 16:58:52;;;;;;;4.18;2.70;;;;;;;25.18;46.19;99655.22;8382675;28;20043;-81
2022/08/12 17:02:53;;;;;;;6.10;3.45;;;;;;;25.05;46.61;99651.25;8375584;28;20534;-80
2022/08/12 17:06:54;;;;;;;3.55;3.20;;;;;;;24.92;46.81;99636.22;8366192;28;20086;-81
2022/08/12 17:10:57;;;;;;;6.75;3.17;;;;;;;24.80;47.08;99640.91;8365385;28;20067;-82
2022/08/12 17:15:01;;;;;;;7.38;3.90;;;;;;;24.71;47.70;99637.72;8317521;28;20064;-82
2022/08/12 17:19:07;;;;;;;8.57;4.38;;;;;;;24.59;47.53;99638.09;8382605;28;20052;-82
2022/08/12 17:23:12;;;;;;;5.90;3.70;;;;;;;24.45;48.26;99638.03;8358863;28;20053;-82
2022/08/12 17:27:15;;;;;;;9.18;4.38;;;;;;;24.35;48.94;99636.03;8365041;28;20049;-83
2022/08/12 17:31:16;;;;;;;10.63;5.20;;;;;;;24.23;49.41;99639.13;8356795;28;20056;-82
2022/08/12 17:35:28;;;;;;;11.68;5.07;;;;;;;24.10;49.93;99640.63;8358786;28;20079;-82
2022/08/12 17:39:29;;;;;;;8.93;4.28;;;;;;;23.95;50.86;99643.28;8357265;28;20045;-84
2022/08/12 17:43:31;;;;;;;11.88;7.57;;;;;;;23.80;51.29;99644.38;8356468;28;20057;-84
2022/08/12 17:47:32;;;;;;;12.30;7.22;;;;;;;23.66;51.96;99644.28;8362867;28;20044;-84
2022/08/12 17:51:34;;;;;;;12.25;5.65;;;;;;;23.55;52.49;99654.44;8336712;28;20093;-84
2022/08/12 17:55:38;;;;;;;7.10;5.03;;;;;;;23.41;53.71;99643.28;8343466;28;20045;-83
2022/08/12 17:59:42;;;;;;;36.55;24.08;;;;;;;23.24;54.28;99649.41;8349178;28;20065;-84
2022/08/12 18:03:44;;;;;;;14.30;7.43;;;;;;;23.08;54.80;99646.91;8331653;28;20049;-84
2022/08/12 18:07:46;;;;;;;7.25;4.40;;;;;;;22.94;55.74;99647.56;8335650;28;20037;-83
2022/08/12 18:16:10;;;;;;;25.48;14.50;;;;;;;22.60;56.83;99654.22;8345827;28;20049;-87
2022/08/12 18:20:16;;;;;;;14.82;8.93;;;;;;;22.42;57.39;99653.25;8353794;28;20052;-81
2022/08/12 18:24:18;;;;;;;10.00;5.63;;;;;;;22.31;57.82;99662.13;8347856;28;20389;-81
2022/08/12 18:28:20;;;;;;;16.02;8.98;;;;;;;22.25;58.28;99655.38;8360742;28;20048;-82
2022/08/12 18:32:22;;;;;;;18.23;12.55;;;;;;;22.15;58.91;99661.53;8351417;28;20053;-81
2022/08/12 18:36:24;;;;;;;18.60;10.32;;;;;;;22.05;59.19;99662.16;8371897;28;20043;-82
2022/08/12 18:44:45;;;;;;;13.80;9.18;;;;;;;21.83;60.36;99665.75;8352266;28;20044;-81
2022/08/12 18:48:46;;;;;;;28.23;13.25;;;;;;;21.69;60.87;99665.53;8362114;28;20075;-82
2022/08/12 18:52:47;;;;;;;9.30;7.13;;;;;;;21.63;61.19;99667.00;8358162;28;20084;-81
2022/08/12 18:56:48;;;;;;;20.58;13.82;;;;;;;21.54;61.55;99669.22;8363113;28;20049;-81
2022/08/12 19:00:50;;;;;;;44.47;25.33;;;;;;;21.53;61.82;99667.63;8358464;28;20443;-81
2022/08/12 19:04:51;;;;;;;36.83;22.67;;;;;;;21.45;62.67;99662.03;8376789;28;20114;-81
2022/08/12 19:08:53;;;;;;;23.92;13.95;;;;;;;21.37;62.84;99665.81;8362902;28;20056;-81
2022/08/12 19:17:15;;;;;;;147.05;86.72;;;;;;;21.27;63.20;99666.41;8360527;28;20063;-81
2022/08/12 19:21:16;;;;;;;52.22;26.45;;;;;;;21.22;63.45;99658.47;8353727;28;20070;-81
2022/08/12 19:25:23;;;;;;;21.67;14.15;;;;;;;21.14;64.13;99667.78;8341416;28;20386;-81
2022/08/12 19:29:25;;;;;;;16.30;10.83;;;;;;;21.03;64.50;99677.72;8360144;28;20155;-81
2022/08/12 19:33:26;;;;;;;21.10;10.68;;;;;;;20.94;65.13;99668.91;8361486;28;20299;-81
2022/08/12 19:37:34;;;;;;;760.25;75.30;;;;;;;20.85;65.61;99665.63;8360880;28;20053;-81
2022/08/12 19:41:39;;;;;;;266.80;29.85;;;;;;;20.75;66.08;99663.47;8361612;28;20131;-81
2022/08/12 19:45:41;;;;;;;67.25;14.10;;;;;;;20.67;66.38;99666.06;8342792;28;20048;-81
2022/08/12 19:49:50;;;;;;;50.65;11.43;;;;;;;20.59;67.04;99664.34;8353450;28;20059;-81
2022/08/12 19:53:52;;;;;;;14.75;8.18;;;;;;;20.48;66.91;99668.81;8351575;28;20056;-81
2022/08/12 19:57:53;;;;;;;16.33;8.20;;;;;;;20.36;67.66;99666.19;8373496;28;20067;-81
2022/08/12 20:01:56;;;;;;;21.48;8.73;;;;;;;20.25;68.19;99654.19;8354400;28;20051;-81
2022/08/12 20:05:57;;;;;;;19.80;9.27;;;;;;;20.21;68.20;99665.09;8357130;28;20056;-81
2022/08/12 20:09:59;;;;;;;11.52;7.63;;;;;;;20.17;68.41;99657.94;8361096;28;20048;-81
2022/08/12 20:14:02;;;;;;;15.73;7.55;;;;;;;20.16;68.58;99661.81;8361377;28;20154;-81
2022/08/12 20:18:07;;;;;;;12.18;7.10;;;;;;;20.17;68.98;99657.94;8364151;28;20068;-81
2022/08/12 20:22:11;;;;;;;9.90;6.95;;;;;;;20.18;69.30;99654.84;8364839;28;20264;-80
2022/08/12 20:26:12;;;;;;;9.63;7.28;;;;;;;20.19;69.61;99661.13;8359098;28;20077;-81
2022/08/12 20:30:13;;;;;;;10.45;7.57;;;;;;;20.19;69.76;99655.63;8357756;28;20052;-81
2022/08/12 20:34:15;;;;;;;15.93;7.63;;;;;;;20.18;69.99;99662.28;8362213;28;20032;-80
2022/08/12 20:38:16;;;;;;;12.98;7.65;;;;;;;20.19;70.26;99666.59;8369182;28;20075;-80
2022/08/12 20:42:17;;;;;;;9.60;7.55;;;;;;;20.26;70.04;99661.25;8336217;28;20032;-81
2022/08/12 20:46:19;;;;;;;11.65;7.93;;;;;;;20.34;70.10;99671.28;8343746;28;20511;-81
2022/08/12 20:50:21;;;;;;;9.65;6.53;;;;;;;20.46;69.76;99684.84;8357728;28;20063;-81
2022/08/12 20:54:22;;;;;;;10.88;6.95;;;;;;;20.53;69.75;99682.25;8362391;28;20537;-80
2022/08/12 20:58:23;;;;;;;12.80;7.95;;;;;;;20.61;69.47;99678.50;8360221;28;20033;-81
2022/08/12 21:02:27;;;;;;;11.48;7.70;;;;;;;20.64;69.43;99677.78;8359084;28;20049;-81
2022/08/12 21:10:47;;;;;;;7.65;6.80;;;;;;;20.67;69.41;99677.03;8361379;28;20132;-81